Time,TemperatureF,DewpointF,PressureIn,WindDirection,WindDirectionDegrees,WindSpeedMPH,WindSpeedGustMPH,Humidity,HourlyPrecipIn,Conditions,Clouds,dailyrainin,SoftwareType,DateUTC
2013-03-20 00:00:00,17.0,-99.9,-100.00,SSE,166,10.0,16.0,15,-99.99,,,-99.99,,2013-03-20 06:00:00,
2013-03-20 00:43:00,17.0,-22.0,-100.00,SSE,166,10.0,16.0,15,-99.99,,,-99.99,,2013-03-20 06:43:00,
2013-03-20 00:52:00,17.0,-22.0,-100.00,SSE,166,10.0,16.0,15,-99.99,,,-99.99,,2013-03-20 06:52:00,
2013-03-20 01:00:00,16.0,-8.0,-100.00,South,188,14.0,19.0,33,-99.99,,,-99.99,,2013-03-20 07:00:00,
2013-03-20 01:42:00,16.0,-8.0,-100.00,South,188,14.0,19.0,33,-99.99,,,-99.99,,2013-03-20 07:42:00,
2013-03-20 01:52:00,16.0,-8.0,-100.00,South,188,14.0,19.0,33,-99.99,,,-99.99,,2013-03-20 07:52:00,
2013-03-20 02:00:00,15.0,0.0,-100.00,South,175,17.0,21.0,51,-99.99,,,-99.99,,2013-03-20 08:00:00,
2013-03-20 02:42:00,15.0,0.0,-100.00,South,175,17.0,21.0,51,-99.99,,,-99.99,,2013-03-20 08:42:00,
2013-03-20 02:52:00,15.0,0.0,-100.00,South,175,17.0,21.0,51,-99.99,,,-99.99,,2013-03-20 08:52:00,
2013-03-20 03:00:00,15.0,0.0,-100.00,SSE,158,18.0,24.0,52,-99.99,,,-99.99,,2013-03-20 09:00:00,
2013-03-20 03:43:00,15.0,0.0,-100.00,SSE,158,18.0,24.0,52,-99.99,,,-99.99,,2013-03-20 09:43:00,
2013-03-20 03:53:00,15.0,0.0,-100.00,SSE,158,18.0,24.0,52,-99.99,,,-99.99,,2013-03-20 09:53:00,
2013-03-20 04:00:00,15.0,-9.0,-100.00,South,183,17.0,24.0,33,-99.99,,,-99.99,,2013-03-20 10:00:00,
2013-03-20 04:43:00,15.0,-9.0,-100.00,South,183,17.0,24.0,33,-99.99,,,-99.99,,2013-03-20 10:43:00,
2013-03-20 04:53:00,15.0,-9.0,-100.00,South,183,17.0,24.0,33,-99.99,,,-99.99,,2013-03-20 10:53:00,
2013-03-20 05:00:00,16.0,-10.0,-100.00,SW,214,12.0,17.0,30,-99.99,,,-99.99,,2013-03-20 11:00:00,
2013-03-20 05:42:00,16.0,-10.0,-100.00,SW,214,12.0,17.0,30,-99.99,,,-99.99,,2013-03-20 11:42:00,
2013-03-20 05:52:00,16.0,-10.0,-100.00,SW,214,12.0,17.0,30,-99.99,,,-99.99,,2013-03-20 11:52:00,
2013-03-20 06:00:00,17.0,-8.0,-100.00,SSW,208,13.0,19.0,31,-99.99,,,-99.99,,2013-03-20 12:00:00,
2013-03-20 06:42:00,17.0,-8.0,-100.00,SSW,208,13.0,19.0,31,-99.99,,,-99.99,,2013-03-20 12:42:00,
2013-03-20 06:52:00,17.0,-8.0,-100.00,SSW,208,13.0,19.0,31,-99.99,,,-99.99,,2013-03-20 12:52:00,
2013-03-20 07:00:00,16.0,-7.0,-100.00,SSW,194,18.0,26.0,35,-99.99,,,-99.99,,2013-03-20 13:00:00,
2013-03-20 07:43:00,16.0,-7.0,-100.00,SSW,194,18.0,26.0,35,-99.99,,,-99.99,,2013-03-20 13:43:00,
2013-03-20 07:53:00,16.0,-7.0,-100.00,SSW,194,18.0,26.0,35,-99.99,,,-99.99,,2013-03-20 13:53:00,
2013-03-20 08:00:00,15.0,-5.0,-100.00,SSW,198,16.0,24.0,40,-99.99,,,-99.99,,2013-03-20 14:00:00,
2013-03-20 08:43:00,15.0,-5.0,-100.00,SSW,198,16.0,24.0,40,-99.99,,,-99.99,,2013-03-20 14:43:00,
2013-03-20 08:52:00,15.0,-5.0,-100.00,SSW,198,16.0,24.0,40,-99.99,,,-99.99,,2013-03-20 14:52:00,
2013-03-20 09:00:00,15.0,-3.0,-100.00,SSW,194,16.0,23.0,44,-99.99,,,-99.99,,2013-03-20 15:00:00,
2013-03-20 09:43:00,15.0,-3.0,-100.00,SSW,194,16.0,23.0,44,-99.99,,,-99.99,,2013-03-20 15:43:00,
2013-03-20 09:53:00,15.0,-3.0,-100.00,SSW,194,16.0,23.0,44,-99.99,,,-99.99,,2013-03-20 15:53:00,
2013-03-20 10:00:00,16.0,0.0,-100.00,South,190,15.0,23.0,48,-99.99,,,-99.99,,2013-03-20 16:00:00,
2013-03-20 10:43:00,16.0,0.0,-100.00,South,190,15.0,23.0,48,-99.99,,,-99.99,,2013-03-20 16:43:00,
2013-03-20 10:53:00,16.0,0.0,-100.00,South,190,15.0,23.0,48,-99.99,,,-99.99,,2013-03-20 16:53:00,
2013-03-20 11:00:00,17.0,3.0,-100.00,SSW,199,16.0,24.0,53,-99.99,,,-99.99,,2013-03-20 17:00:00,
2013-03-20 11:42:00,17.0,3.0,-100.00,SSW,199,16.0,24.0,53,-99.99,,,-99.99,,2013-03-20 17:42:00,
2013-03-20 11:53:00,17.0,3.0,-100.00,SSW,199,16.0,24.0,53,-99.99,,,-99.99,,2013-03-20 17:53:00,
2013-03-20 12:00:00,17.0,4.0,-100.00,South,188,16.0,25.0,56,-99.99,,,-99.99,,2013-03-20 18:00:00,
2013-03-20 12:43:00,17.0,4.0,-100.00,South,188,16.0,25.0,56,-99.99,,,-99.99,,2013-03-20 18:43:00,
2013-03-20 12:52:00,17.0,4.0,-100.00,South,188,16.0,25.0,56,-99.99,,,-99.99,,2013-03-20 18:52:00,
2013-03-20 13:00:00,19.0,7.0,-100.00,SSW,198,17.0,29.0,58,-99.99,,,-99.99,,2013-03-20 19:00:00,
2013-03-20 13:42:00,19.0,7.0,-100.00,SSW,198,17.0,29.0,58,-99.99,,,-99.99,,2013-03-20 19:42:00,
2013-03-20 13:53:00,19.0,7.0,-100.00,SSW,198,17.0,29.0,58,-99.99,,,-99.99,,2013-03-20 19:53:00,
2013-03-20 14:00:00,19.0,10.0,-100.00,SSW,196,21.0,36.0,66,-99.99,,,-99.99,,2013-03-20 20:00:00,
2013-03-20 14:42:00,19.0,10.0,-100.00,SSW,196,21.0,36.0,66,-99.99,,,-99.99,,2013-03-20 20:42:00,
2013-03-20 14:53:00,19.0,10.0,-100.00,SSW,196,21.0,36.0,66,-99.99,,,-99.99,,2013-03-20 20:53:00,
2013-03-20 15:00:00,16.0,14.0,-100.00,SSW,198,20.0,32.0,93,-99.99,,,-99.99,,2013-03-20 21:00:00,
2013-03-20 15:42:00,16.0,14.0,-100.00,SSW,198,20.0,32.0,93,-99.99,,,-99.99,,2013-03-20 21:42:00,
2013-03-20 15:53:00,16.0,14.0,-100.00,SSW,198,20.0,32.0,93,-99.99,,,-99.99,,2013-03-20 21:53:00,
2013-03-20 16:00:00,17.0,15.0,-100.00,South,188,18.0,28.0,94,-99.99,,,-99.99,,2013-03-20 22:00:00,
2013-03-20 16:43:00,17.0,15.0,-100.00,South,188,18.0,28.0,94,-99.99,,,-99.99,,2013-03-20 22:43:00,
2013-03-20 16:52:00,17.0,15.0,-100.00,South,188,18.0,28.0,94,-99.99,,,-99.99,,2013-03-20 22:52:00,
2013-03-20 17:00:00,18.0,16.0,-100.00,SSW,194,13.0,21.0,94,-99.99,,,-99.99,,2013-03-20 23:00:00,
2013-03-20 17:43:00,18.0,16.0,-100.00,SSW,194,13.0,21.0,94,-99.99,,,-99.99,,2013-03-20 23:43:00,
2013-03-20 17:52:00,18.0,16.0,-100.00,SSW,194,13.0,21.0,94,-99.99,,,-99.99,,2013-03-20 23:52:00,
2013-03-20 18:00:00,18.0,16.0,-100.00,South,190,16.0,28.0,94,-99.99,,,-99.99,,2013-03-21 00:00:00,
2013-03-20 18:42:00,18.0,16.0,-100.00,South,190,16.0,28.0,94,-99.99,,,-99.99,,2013-03-21 00:42:00,
2013-03-20 18:52:00,18.0,16.0,-100.00,South,190,16.0,28.0,94,-99.99,,,-99.99,,2013-03-21 00:52:00,
2013-03-20 19:00:00,17.0,16.0,-100.00,SSW,194,16.0,27.0,94,-99.99,,,-99.99,,2013-03-21 01:00:00,
2013-03-20 19:42:00,17.0,16.0,-100.00,SSW,194,16.0,27.0,94,-99.99,,,-99.99,,2013-03-21 01:42:00,
2013-03-20 19:52:00,17.0,16.0,-100.00,SSW,194,16.0,27.0,94,-99.99,,,-99.99,,2013-03-21 01:52:00,
2013-03-20 20:00:00,17.0,16.0,-100.00,SSW,195,12.0,25.0,94,-99.99,,,-99.99,,2013-03-21 02:00:00,
2013-03-20 21:00:00,17.0,16.0,-100.00,South,183,12.0,21.0,94,-99.99,,,-99.99,,2013-03-21 03:00:00,
2013-03-20 21:43:00,17.0,16.0,-100.00,South,183,12.0,21.0,94,-99.99,,,-99.99,,2013-03-21 03:43:00,
2013-03-20 21:53:00,17.0,16.0,-100.00,South,183,12.0,21.0,94,-99.99,,,-99.99,,2013-03-21 03:53:00,
2013-03-20 22:00:00,17.0,16.0,-100.00,South,182,12.0,19.0,94,-99.99,,,-99.99,,2013-03-21 04:00:00,
2013-03-20 22:43:00,17.0,16.0,-100.00,South,182,12.0,19.0,94,-99.99,,,-99.99,,2013-03-21 04:43:00,
2013-03-20 22:53:00,17.0,16.0,-100.00,South,182,12.0,19.0,94,-99.99,,,-99.99,,2013-03-21 04:53:00,
2013-03-20 23:00:00,17.0,16.0,-100.00,South,178,10.0,15.0,94,-99.99,,,-99.99,,2013-03-21 05:00:00,
2013-03-20 23:44:00,17.0,16.0,-100.00,South,178,10.0,15.0,94,-99.99,,,-99.99,,2013-03-21 05:44:00,
2013-03-20 23:52:00,17.0,16.0,-100.00,South,178,10.0,15.0,94,-99.99,,,-99.99,,2013-03-21 05:52:00,